sensor_id;sensor_type;location;lat;lon;timestamp;temperature;humidity
17442;DHT22;8838;50.144;8.176;2022-08-05T00:02:25;23.00;99.90
17442;DHT22;8838;50.144;8.176;2022-08-05T00:04:52;22.80;99.90
17442;DHT22;8838;50.144;8.176;2022-08-05T00:07:20;22.60;99.90
17442;DHT22;8838;50.144;8.176;2022-08-05T00:09:47;22.50;99.90
17442;DHT22;8838;50.144;8.176;2022-08-05T00:12:13;22.50;99.90
17442;DHT22;8838;50.144;8.176;2022-08-05T00:14:40;22.40;99.90
17442;DHT22;8838;50.144;8.176;2022-08-05T00:17:07;22.30;99.90
17442;DHT22;8838;50.144;8.176;2022-08-05T00:19:34;22.30;99.90
17442;DHT22;8838;50.144;8.176;2022-08-05T00:22:01;22.20;99.90
17442;DHT22;8838;50.144;8.176;2022-08-05T00:24:30;22.10;99.90
17442;DHT22;8838;50.144;8.176;2022-08-05T00:26:57;22.10;99.90
17442;DHT22;8838;50.144;8.176;2022-08-05T00:29:24;22.10;99.90
17442;DHT22;8838;50.144;8.176;2022-08-05T00:31:51;22.10;99.90
17442;DHT22;8838;50.144;8.176;2022-08-05T00:34:18;21.70;99.90
17442;DHT22;8838;50.144;8.176;2022-08-05T00:36:45;21.30;99.90
17442;DHT22;8838;50.144;8.176;2022-08-05T00:39:12;21.10;99.90
17442;DHT22;8838;50.144;8.176;2022-08-05T00:41:45;20.90;99.90
17442;DHT22;8838;50.144;8.176;2022-08-05T00:44:13;20.90;99.90
17442;DHT22;8838;50.144;8.176;2022-08-05T00:46:40;21.00;99.90
17442;DHT22;8838;50.144;8.176;2022-08-05T00:49:07;21.10;99.90
17442;DHT22;8838;50.144;8.176;2022-08-05T00:51:34;21.20;99.90
17442;DHT22;8838;50.144;8.176;2022-08-05T00:54:01;21.40;99.90
17442;DHT22;8838;50.144;8.176;2022-08-05T00:56:28;21.40;99.90
17442;DHT22;8838;50.144;8.176;2022-08-05T00:58:57;21.50;99.90
17442;DHT22;8838;50.144;8.176;2022-08-05T01:01:23;21.60;99.90
17442;DHT22;8838;50.144;8.176;2022-08-05T01:03:50;21.60;99.90
17442;DHT22;8838;50.144;8.176;2022-08-05T01:06:17;21.60;99.90
17442;DHT22;8838;50.144;8.176;2022-08-05T01:08:44;21.60;99.90
17442;DHT22;8838;50.144;8.176;2022-08-05T01:11:15;21.60;99.90
17442;DHT22;8838;50.144;8.176;2022-08-05T01:13:47;21.60;99.90
17442;DHT22;8838;50.144;8.176;2022-08-05T01:16:24;21.60;99.90
17442;DHT22;8838;50.144;8.176;2022-08-05T01:18:58;21.50;99.90
17442;DHT22;8838;50.144;8.176;2022-08-05T01:21:54;21.40;99.90
17442;DHT22;8838;50.144;8.176;2022-08-05T01:24:34;21.30;99.90
17442;DHT22;8838;50.144;8.176;2022-08-05T01:27:15;21.20;99.90
17442;DHT22;8838;50.144;8.176;2022-08-05T01:29:55;21.30;99.90
17442;DHT22;8838;50.144;8.176;2022-08-05T01:32:26;21.30;99.90
17442;DHT22;8838;50.144;8.176;2022-08-05T01:34:56;21.20;99.90
17442;DHT22;8838;50.144;8.176;2022-08-05T01:37:31;21.20;99.90
17442;DHT22;8838;50.144;8.176;2022-08-05T01:40:00;21.20;99.90
17442;DHT22;8838;50.144;8.176;2022-08-05T01:42:30;21.30;99.90
17442;DHT22;8838;50.144;8.176;2022-08-05T01:45:00;21.10;99.90
17442;DHT22;8838;50.144;8.176;2022-08-05T01:47:30;21.30;99.90
17442;DHT22;8838;50.144;8.176;2022-08-05T01:49:58;21.20;99.90
17442;DHT22;8838;50.144;8.176;2022-08-05T01:52:27;21.20;99.90
17442;DHT22;8838;50.144;8.176;2022-08-05T01:54:57;21.20;99.90
17442;DHT22;8838;50.144;8.176;2022-08-05T01:57:27;21.10;99.90
17442;DHT22;8838;50.144;8.176;2022-08-05T01:59:58;21.00;99.90
17442;DHT22;8838;50.144;8.176;2022-08-05T02:02:28;21.00;99.90
17442;DHT22;8838;50.144;8.176;2022-08-05T02:04:58;21.10;99.90
17442;DHT22;8838;50.144;8.176;2022-08-05T02:07:26;21.10;99.90
17442;DHT22;8838;50.144;8.176;2022-08-05T02:09:53;21.20;99.90
17442;DHT22;8838;50.144;8.176;2022-08-05T02:12:26;20.90;99.90
17442;DHT22;8838;50.144;8.176;2022-08-05T02:15:03;20.90;99.90
17442;DHT22;8838;50.144;8.176;2022-08-05T02:17:39;21.00;99.90
17442;DHT22;8838;50.144;8.176;2022-08-05T02:20:13;20.90;99.90
17442;DHT22;8838;50.144;8.176;2022-08-05T02:22:46;20.90;99.90
17442;DHT22;8838;50.144;8.176;2022-08-05T02:25:22;20.90;99.90
17442;DHT22;8838;50.144;8.176;2022-08-05T02:27:50;20.90;99.90
17442;DHT22;8838;50.144;8.176;2022-08-05T02:30:18;20.80;99.90
17442;DHT22;8838;50.144;8.176;2022-08-05T02:32:49;20.60;99.90
17442;DHT22;8838;50.144;8.176;2022-08-05T02:35:19;20.60;99.90
17442;DHT22;8838;50.144;8.176;2022-08-05T02:37:46;20.50;99.90
17442;DHT22;8838;50.144;8.176;2022-08-05T02:40:16;20.60;99.90
17442;DHT22;8838;50.144;8.176;2022-08-05T02:42:44;20.60;99.90
17442;DHT22;8838;50.144;8.176;2022-08-05T02:45:11;20.60;99.90
17442;DHT22;8838;50.144;8.176;2022-08-05T02:47:40;20.60;99.90
17442;DHT22;8838;50.144;8.176;2022-08-05T02:50:10;20.60;99.90
17442;DHT22;8838;50.144;8.176;2022-08-05T02:52:39;20.60;99.90
17442;DHT22;8838;50.144;8.176;2022-08-05T02:55:08;20.70;99.90
17442;DHT22;8838;50.144;8.176;2022-08-05T02:57:38;20.70;99.90
17442;DHT22;8838;50.144;8.176;2022-08-05T03:00:06;20.70;99.90
17442;DHT22;8838;50.144;8.176;2022-08-05T03:02:35;20.80;99.90
17442;DHT22;8838;50.144;8.176;2022-08-05T03:05:04;20.90;99.90
17442;DHT22;8838;50.144;8.176;2022-08-05T03:07:34;20.80;99.90
17442;DHT22;8838;50.144;8.176;2022-08-05T03:10:02;20.90;99.90
17442;DHT22;8838;50.144;8.176;2022-08-05T03:12:29;20.90;99.90
17442;DHT22;8838;50.144;8.176;2022-08-05T03:14:56;21.10;99.90
17442;DHT22;8838;50.144;8.176;2022-08-05T03:17:23;21.10;99.90
17442;DHT22;8838;50.144;8.176;2022-08-05T03:19:51;21.00;99.90
17442;DHT22;8838;50.144;8.176;2022-08-05T03:22:18;20.90;99.90
17442;DHT22;8838;50.144;8.176;2022-08-05T03:24:47;20.90;99.90
17442;DHT22;8838;50.144;8.176;2022-08-05T03:27:14;20.90;99.90
17442;DHT22;8838;50.144;8.176;2022-08-05T03:29:42;20.80;99.90
17442;DHT22;8838;50.144;8.176;2022-08-05T03:32:09;20.70;99.90
17442;DHT22;8838;50.144;8.176;2022-08-05T03:34:37;20.70;99.90
17442;DHT22;8838;50.144;8.176;2022-08-05T03:37:04;20.70;99.90
17442;DHT22;8838;50.144;8.176;2022-08-05T03:39:32;20.80;99.90
17442;DHT22;8838;50.144;8.176;2022-08-05T03:42:00;20.80;99.90
17442;DHT22;8838;50.144;8.176;2022-08-05T03:44:27;20.80;99.90
17442;DHT22;8838;50.144;8.176;2022-08-05T03:46:53;20.80;99.90
17442;DHT22;8838;50.144;8.176;2022-08-05T03:49:20;20.80;99.90
17442;DHT22;8838;50.144;8.176;2022-08-05T03:51:53;20.90;99.90
17442;DHT22;8838;50.144;8.176;2022-08-05T03:54:29;20.80;99.90
17442;DHT22;8838;50.144;8.176;2022-08-05T03:56:59;20.80;99.90
17442;DHT22;8838;50.144;8.176;2022-08-05T03:59:32;20.80;99.90
17442;DHT22;8838;50.144;8.176;2022-08-05T04:02:00;20.70;99.90
17442;DHT22;8838;50.144;8.176;2022-08-05T04:04:29;20.70;99.90
17442;DHT22;8838;50.144;8.176;2022-08-05T04:06:57;20.70;99.90
17442;DHT22;8838;50.144;8.176;2022-08-05T04:09:25;20.70;99.90
17442;DHT22;8838;50.144;8.176;2022-08-05T04:11:53;20.70;99.90
17442;DHT22;8838;50.144;8.176;2022-08-05T04:14:21;20.70;99.90
17442;DHT22;8838;50.144;8.176;2022-08-05T04:16:48;20.70;99.90
17442;DHT22;8838;50.144;8.176;2022-08-05T04:19:15;20.70;99.90
17442;DHT22;8838;50.144;8.176;2022-08-05T04:21:42;20.70;99.90
17442;DHT22;8838;50.144;8.176;2022-08-05T04:24:09;20.80;99.90
17442;DHT22;8838;50.144;8.176;2022-08-05T04:26:36;20.80;99.90
17442;DHT22;8838;50.144;8.176;2022-08-05T04:29:02;20.80;99.90
17442;DHT22;8838;50.144;8.176;2022-08-05T04:31:31;20.80;99.90
17442;DHT22;8838;50.144;8.176;2022-08-05T04:33:57;20.80;99.90
17442;DHT22;8838;50.144;8.176;2022-08-05T04:36:24;20.80;99.90
17442;DHT22;8838;50.144;8.176;2022-08-05T04:38:51;20.80;99.90
17442;DHT22;8838;50.144;8.176;2022-08-05T04:41:19;20.90;99.90
17442;DHT22;8838;50.144;8.176;2022-08-05T04:43:46;20.90;99.90
17442;DHT22;8838;50.144;8.176;2022-08-05T04:46:13;20.90;99.90
17442;DHT22;8838;50.144;8.176;2022-08-05T04:48:41;20.90;99.90
17442;DHT22;8838;50.144;8.176;2022-08-05T04:51:08;20.80;99.90
17442;DHT22;8838;50.144;8.176;2022-08-05T04:53:37;20.80;99.90
17442;DHT22;8838;50.144;8.176;2022-08-05T04:56:04;20.90;99.90
17442;DHT22;8838;50.144;8.176;2022-08-05T04:58:31;20.90;99.90
17442;DHT22;8838;50.144;8.176;2022-08-05T05:00:58;21.00;99.90
17442;DHT22;8838;50.144;8.176;2022-08-05T05:03:25;20.90;99.90
17442;DHT22;8838;50.144;8.176;2022-08-05T05:05:53;20.90;99.90
17442;DHT22;8838;50.144;8.176;2022-08-05T05:08:20;20.90;99.90
17442;DHT22;8838;50.144;8.176;2022-08-05T05:10:48;20.90;99.90
17442;DHT22;8838;50.144;8.176;2022-08-05T05:13:17;20.80;99.90
17442;DHT22;8838;50.144;8.176;2022-08-05T05:15:45;20.80;99.90
17442;DHT22;8838;50.144;8.176;2022-08-05T05:18:12;20.80;99.90
17442;DHT22;8838;50.144;8.176;2022-08-05T05:20:41;20.90;99.90
17442;DHT22;8838;50.144;8.176;2022-08-05T05:23:10;20.90;99.90
17442;DHT22;8838;50.144;8.176;2022-08-05T05:25:39;20.90;99.90
17442;DHT22;8838;50.144;8.176;2022-08-05T05:28:06;20.90;99.90
17442;DHT22;8838;50.144;8.176;2022-08-05T05:30:34;20.80;99.90
17442;DHT22;8838;50.144;8.176;2022-08-05T05:33:02;20.80;99.90
17442;DHT22;8838;50.144;8.176;2022-08-05T05:35:30;20.90;99.90
17442;DHT22;8838;50.144;8.176;2022-08-05T05:37:58;21.00;99.90
17442;DHT22;8838;50.144;8.176;2022-08-05T05:40:29;21.10;99.90
17442;DHT22;8838;50.144;8.176;2022-08-05T05:42:56;21.10;99.90
17442;DHT22;8838;50.144;8.176;2022-08-05T05:45:23;21.10;99.90
17442;DHT22;8838;50.144;8.176;2022-08-05T05:47:51;20.90;99.90
17442;DHT22;8838;50.144;8.176;2022-08-05T05:50:19;20.80;99.90
17442;DHT22;8838;50.144;8.176;2022-08-05T05:52:46;20.60;99.90
17442;DHT22;8838;50.144;8.176;2022-08-05T05:55:14;20.60;99.90
17442;DHT22;8838;50.144;8.176;2022-08-05T05:57:45;20.70;99.90
17442;DHT22;8838;50.144;8.176;2022-08-05T06:00:14;20.90;99.90
17442;DHT22;8838;50.144;8.176;2022-08-05T06:02:42;20.90;99.90
17442;DHT22;8838;50.144;8.176;2022-08-05T06:05:12;20.80;99.90
17442;DHT22;8838;50.144;8.176;2022-08-05T06:07:40;20.80;99.90
17442;DHT22;8838;50.144;8.176;2022-08-05T06:10:08;20.90;99.90
17442;DHT22;8838;50.144;8.176;2022-08-05T06:12:37;20.80;99.90
17442;DHT22;8838;50.144;8.176;2022-08-05T06:15:07;20.80;99.90
17442;DHT22;8838;50.144;8.176;2022-08-05T06:17:34;20.80;99.90
17442;DHT22;8838;50.144;8.176;2022-08-05T06:20:02;20.80;99.90
17442;DHT22;8838;50.144;8.176;2022-08-05T06:22:30;20.70;99.90
17442;DHT22;8838;50.144;8.176;2022-08-05T06:24:58;20.70;99.90
17442;DHT22;8838;50.144;8.176;2022-08-05T06:27:25;20.70;99.90
17442;DHT22;8838;50.144;8.176;2022-08-05T06:29:51;20.70;99.90
17442;DHT22;8838;50.144;8.176;2022-08-05T06:32:20;20.60;99.90
17442;DHT22;8838;50.144;8.176;2022-08-05T06:34:47;20.80;99.90
17442;DHT22;8838;50.144;8.176;2022-08-05T06:37:14;20.90;99.90
17442;DHT22;8838;50.144;8.176;2022-08-05T06:39:41;21.20;99.90
17442;DHT22;8838;50.144;8.176;2022-08-05T06:42:08;21.30;99.90
17442;DHT22;8838;50.144;8.176;2022-08-05T06:44:35;21.30;99.90
17442;DHT22;8838;50.144;8.176;2022-08-05T06:47:02;21.50;99.90
17442;DHT22;8838;50.144;8.176;2022-08-05T06:49:30;21.60;99.90
17442;DHT22;8838;50.144;8.176;2022-08-05T06:51:57;21.70;99.90
17442;DHT22;8838;50.144;8.176;2022-08-05T06:54:23;21.80;99.90
17442;DHT22;8838;50.144;8.176;2022-08-05T06:56:51;21.80;99.90
17442;DHT22;8838;50.144;8.176;2022-08-05T06:59:18;21.90;99.90
17442;DHT22;8838;50.144;8.176;2022-08-05T07:01:45;21.90;99.90
17442;DHT22;8838;50.144;8.176;2022-08-05T07:04:12;21.90;99.90
17442;DHT22;8838;50.144;8.176;2022-08-05T07:06:40;21.90;99.90
17442;DHT22;8838;50.144;8.176;2022-08-05T07:09:07;21.90;99.90
17442;DHT22;8838;50.144;8.176;2022-08-05T07:11:34;22.00;99.90
17442;DHT22;8838;50.144;8.176;2022-08-05T07:14:01;22.00;99.90
17442;DHT22;8838;50.144;8.176;2022-08-05T07:16:46;21.80;99.90
17442;DHT22;8838;50.144;8.176;2022-08-05T07:19:16;21.80;99.90
17442;DHT22;8838;50.144;8.176;2022-08-05T07:21:46;21.90;99.90
17442;DHT22;8838;50.144;8.176;2022-08-05T07:24:13;22.00;99.90
17442;DHT22;8838;50.144;8.176;2022-08-05T07:26:41;22.20;99.90
17442;DHT22;8838;50.144;8.176;2022-08-05T07:29:08;22.40;99.90
17442;DHT22;8838;50.144;8.176;2022-08-05T07:31:35;22.70;99.90
17442;DHT22;8838;50.144;8.176;2022-08-05T07:34:02;22.70;99.90
17442;DHT22;8838;50.144;8.176;2022-08-05T07:36:29;22.80;99.90
17442;DHT22;8838;50.144;8.176;2022-08-05T07:38:59;22.50;99.90
17442;DHT22;8838;50.144;8.176;2022-08-05T07:41:26;22.40;99.90
17442;DHT22;8838;50.144;8.176;2022-08-05T07:43:54;22.30;99.90
17442;DHT22;8838;50.144;8.176;2022-08-05T07:46:21;22.30;99.90
17442;DHT22;8838;50.144;8.176;2022-08-05T07:48:48;22.30;99.90
17442;DHT22;8838;50.144;8.176;2022-08-05T07:51:16;22.30;99.90
17442;DHT22;8838;50.144;8.176;2022-08-05T07:53:42;22.30;99.90
17442;DHT22;8838;50.144;8.176;2022-08-05T07:56:11;22.30;99.90
17442;DHT22;8838;50.144;8.176;2022-08-05T07:58:38;22.30;99.90
17442;DHT22;8838;50.144;8.176;2022-08-05T08:01:05;22.30;99.90
17442;DHT22;8838;50.144;8.176;2022-08-05T08:03:32;22.40;99.90
17442;DHT22;8838;50.144;8.176;2022-08-05T08:05:59;22.40;99.90
17442;DHT22;8838;50.144;8.176;2022-08-05T08:08:26;22.30;99.90
17442;DHT22;8838;50.144;8.176;2022-08-05T08:10:54;22.30;99.90
17442;DHT22;8838;50.144;8.176;2022-08-05T08:13:22;22.30;99.90
17442;DHT22;8838;50.144;8.176;2022-08-05T08:15:49;22.20;99.90
17442;DHT22;8838;50.144;8.176;2022-08-05T08:18:17;22.30;99.90
17442;DHT22;8838;50.144;8.176;2022-08-05T08:20:44;22.30;99.90
17442;DHT22;8838;50.144;8.176;2022-08-05T08:23:10;22.40;99.90
17442;DHT22;8838;50.144;8.176;2022-08-05T08:25:38;22.40;99.90
17442;DHT22;8838;50.144;8.176;2022-08-05T08:28:04;22.50;99.90
17442;DHT22;8838;50.144;8.176;2022-08-05T08:30:33;22.60;99.90
17442;DHT22;8838;50.144;8.176;2022-08-05T08:33:00;22.80;99.90
17442;DHT22;8838;50.144;8.176;2022-08-05T08:35:32;22.80;99.90
17442;DHT22;8838;50.144;8.176;2022-08-05T08:37:59;22.90;99.90
17442;DHT22;8838;50.144;8.176;2022-08-05T08:40:26;23.00;99.90
17442;DHT22;8838;50.144;8.176;2022-08-05T08:42:53;23.20;99.90
17442;DHT22;8838;50.144;8.176;2022-08-05T08:45:21;23.30;99.90
17442;DHT22;8838;50.144;8.176;2022-08-05T08:47:50;23.40;99.90
17442;DHT22;8838;50.144;8.176;2022-08-05T08:50:19;23.30;99.90
17442;DHT22;8838;50.144;8.176;2022-08-05T08:52:50;23.30;99.90
17442;DHT22;8838;50.144;8.176;2022-08-05T08:55:19;23.30;99.90
17442;DHT22;8838;50.144;8.176;2022-08-05T08:57:46;23.40;99.90
17442;DHT22;8838;50.144;8.176;2022-08-05T09:00:14;23.50;99.90
17442;DHT22;8838;50.144;8.176;2022-08-05T09:02:41;23.30;99.90
17442;DHT22;8838;50.144;8.176;2022-08-05T09:05:10;23.30;99.90
17442;DHT22;8838;50.144;8.176;2022-08-05T09:07:38;23.40;99.90
17442;DHT22;8838;50.144;8.176;2022-08-05T09:10:05;23.30;99.90
17442;DHT22;8838;50.144;8.176;2022-08-05T09:12:33;23.20;99.90
17442;DHT22;8838;50.144;8.176;2022-08-05T09:15:01;23.10;99.90
17442;DHT22;8838;50.144;8.176;2022-08-05T09:17:29;22.80;99.90
17442;DHT22;8838;50.144;8.176;2022-08-05T09:19:56;22.80;99.90
17442;DHT22;8838;50.144;8.176;2022-08-05T09:22:24;22.70;99.90
17442;DHT22;8838;50.144;8.176;2022-08-05T09:24:58;22.60;99.90
17442;DHT22;8838;50.144;8.176;2022-08-05T09:27:31;22.60;99.90
17442;DHT22;8838;50.144;8.176;2022-08-05T09:29:58;22.60;99.90
17442;DHT22;8838;50.144;8.176;2022-08-05T09:32:33;22.60;99.90
17442;DHT22;8838;50.144;8.176;2022-08-05T09:35:09;22.60;99.90
17442;DHT22;8838;50.144;8.176;2022-08-05T09:37:48;22.70;99.90
17442;DHT22;8838;50.144;8.176;2022-08-05T09:40:29;22.90;99.90
17442;DHT22;8838;50.144;8.176;2022-08-05T09:42:56;23.00;99.90
17442;DHT22;8838;50.144;8.176;2022-08-05T09:45:34;22.90;99.90
17442;DHT22;8838;50.144;8.176;2022-08-05T09:48:22;22.90;99.90
17442;DHT22;8838;50.144;8.176;2022-08-05T09:50:52;22.80;99.90
17442;DHT22;8838;50.144;8.176;2022-08-05T09:53:21;22.90;99.90
17442;DHT22;8838;50.144;8.176;2022-08-05T09:55:52;23.10;99.90
17442;DHT22;8838;50.144;8.176;2022-08-05T09:58:21;23.00;99.90
17442;DHT22;8838;50.144;8.176;2022-08-05T10:00:52;23.00;99.90
17442;DHT22;8838;50.144;8.176;2022-08-05T10:03:20;22.80;99.90
17442;DHT22;8838;50.144;8.176;2022-08-05T10:05:59;22.70;99.90
17442;DHT22;8838;50.144;8.176;2022-08-05T10:08:28;22.90;99.90
17442;DHT22;8838;50.144;8.176;2022-08-05T10:10:55;22.90;99.90
17442;DHT22;8838;50.144;8.176;2022-08-05T10:13:30;22.80;99.90
17442;DHT22;8838;50.144;8.176;2022-08-05T10:15:57;23.00;99.90
17442;DHT22;8838;50.144;8.176;2022-08-05T10:18:25;23.10;99.90
17442;DHT22;8838;50.144;8.176;2022-08-05T10:20:58;23.20;99.90
17442;DHT22;8838;50.144;8.176;2022-08-05T10:23:28;23.20;99.90
17442;DHT22;8838;50.144;8.176;2022-08-05T10:25:56;23.10;99.90
17442;DHT22;8838;50.144;8.176;2022-08-05T10:28:23;23.10;99.90
17442;DHT22;8838;50.144;8.176;2022-08-05T10:30:51;23.20;99.90
17442;DHT22;8838;50.144;8.176;2022-08-05T10:33:19;23.20;99.90
17442;DHT22;8838;50.144;8.176;2022-08-05T10:35:48;23.30;99.90
17442;DHT22;8838;50.144;8.176;2022-08-05T10:38:16;23.30;99.90
17442;DHT22;8838;50.144;8.176;2022-08-05T10:40:55;23.20;99.90
17442;DHT22;8838;50.144;8.176;2022-08-05T10:43:34;23.30;99.90
17442;DHT22;8838;50.144;8.176;2022-08-05T10:46:05;23.20;99.90
17442;DHT22;8838;50.144;8.176;2022-08-05T10:48:35;23.30;99.90
17442;DHT22;8838;50.144;8.176;2022-08-05T10:51:05;23.30;99.90
17442;DHT22;8838;50.144;8.176;2022-08-05T10:53:34;23.40;99.90
17442;DHT22;8838;50.144;8.176;2022-08-05T10:56:04;23.50;99.90
17442;DHT22;8838;50.144;8.176;2022-08-05T10:58:32;23.40;99.90
17442;DHT22;8838;50.144;8.176;2022-08-05T11:01:01;23.40;99.90
17442;DHT22;8838;50.144;8.176;2022-08-05T11:03:29;23.50;99.90
17442;DHT22;8838;50.144;8.176;2022-08-05T11:06:12;23.40;99.90
17442;DHT22;8838;50.144;8.176;2022-08-05T11:15:04;23.40;99.90
17442;DHT22;8838;50.144;8.176;2022-08-05T11:17:32;23.60;99.90
17442;DHT22;8838;50.144;8.176;2022-08-05T11:20:04;23.80;99.90
17442;DHT22;8838;50.144;8.176;2022-08-05T11:22:40;24.30;99.90
17442;DHT22;8838;50.144;8.176;2022-08-05T11:25:26;24.70;99.90
17442;DHT22;8838;50.144;8.176;2022-08-05T11:27:53;24.80;99.90
17442;DHT22;8838;50.144;8.176;2022-08-05T11:30:22;25.10;99.90
17442;DHT22;8838;50.144;8.176;2022-08-05T11:32:48;25.40;99.90
17442;DHT22;8838;50.144;8.176;2022-08-05T11:35:53;25.50;99.90
17442;DHT22;8838;50.144;8.176;2022-08-05T11:38:50;25.70;99.90
17442;DHT22;8838;50.144;8.176;2022-08-05T11:41:20;25.50;99.90
17442;DHT22;8838;50.144;8.176;2022-08-05T11:43:55;25.20;99.90
17442;DHT22;8838;50.144;8.176;2022-08-05T11:46:27;25.20;99.90
17442;DHT22;8838;50.144;8.176;2022-08-05T11:48:55;25.40;99.90
17442;DHT22;8838;50.144;8.176;2022-08-05T11:51:25;25.50;99.90
17442;DHT22;8838;50.144;8.176;2022-08-05T11:53:53;25.30;99.90
17442;DHT22;8838;50.144;8.176;2022-08-05T11:56:20;25.00;99.90
17442;DHT22;8838;50.144;8.176;2022-08-05T11:58:48;24.70;99.90
17442;DHT22;8838;50.144;8.176;2022-08-05T12:01:16;24.50;99.90
17442;DHT22;8838;50.144;8.176;2022-08-05T12:03:46;24.40;99.90
17442;DHT22;8838;50.144;8.176;2022-08-05T12:06:15;24.40;99.90
17442;DHT22;8838;50.144;8.176;2022-08-05T12:08:44;24.70;99.90
17442;DHT22;8838;50.144;8.176;2022-08-05T12:11:16;25.20;99.90
17442;DHT22;8838;50.144;8.176;2022-08-05T12:13:52;25.40;99.90
17442;DHT22;8838;50.144;8.176;2022-08-05T12:16:20;25.40;99.90
17442;DHT22;8838;50.144;8.176;2022-08-05T12:18:48;25.20;99.90
17442;DHT22;8838;50.144;8.176;2022-08-05T12:21:17;25.00;99.90
17442;DHT22;8838;50.144;8.176;2022-08-05T12:23:52;24.90;99.90
17442;DHT22;8838;50.144;8.176;2022-08-05T12:26:19;24.80;99.90
17442;DHT22;8838;50.144;8.176;2022-08-05T12:28:46;24.60;99.90
17442;DHT22;8838;50.144;8.176;2022-08-05T12:31:13;24.60;99.90
17442;DHT22;8838;50.144;8.176;2022-08-05T12:33:41;24.60;99.90
17442;DHT22;8838;50.144;8.176;2022-08-05T12:36:10;24.60;99.90
17442;DHT22;8838;50.144;8.176;2022-08-05T12:38:39;24.70;99.90
17442;DHT22;8838;50.144;8.176;2022-08-05T12:41:13;25.00;99.90
17442;DHT22;8838;50.144;8.176;2022-08-05T12:43:49;25.20;99.90
17442;DHT22;8838;50.144;8.176;2022-08-05T12:46:21;25.00;99.90
17442;DHT22;8838;50.144;8.176;2022-08-05T12:48:56;24.90;99.90
17442;DHT22;8838;50.144;8.176;2022-08-05T12:51:25;24.70;99.90
17442;DHT22;8838;50.144;8.176;2022-08-05T12:53:58;24.40;99.90
17442;DHT22;8838;50.144;8.176;2022-08-05T12:56:25;24.30;99.90
17442;DHT22;8838;50.144;8.176;2022-08-05T12:59:14;24.30;99.90
17442;DHT22;8838;50.144;8.176;2022-08-05T13:01:43;24.40;99.90
17442;DHT22;8838;50.144;8.176;2022-08-05T13:04:11;24.50;99.90
17442;DHT22;8838;50.144;8.176;2022-08-05T13:06:43;24.40;99.90
17442;DHT22;8838;50.144;8.176;2022-08-05T13:09:11;24.30;99.90
17442;DHT22;8838;50.144;8.176;2022-08-05T13:11:40;24.30;99.90
17442;DHT22;8838;50.144;8.176;2022-08-05T13:14:25;24.30;99.90
17442;DHT22;8838;50.144;8.176;2022-08-05T13:16:54;24.10;99.90
17442;DHT22;8838;50.144;8.176;2022-08-05T13:19:23;24.00;99.90
17442;DHT22;8838;50.144;8.176;2022-08-05T13:21:52;23.90;99.90
17442;DHT22;8838;50.144;8.176;2022-08-05T13:24:20;23.70;99.90
17442;DHT22;8838;50.144;8.176;2022-08-05T13:26:48;23.60;99.90
17442;DHT22;8838;50.144;8.176;2022-08-05T13:29:16;23.40;99.90
17442;DHT22;8838;50.144;8.176;2022-08-05T13:31:45;23.20;99.90
17442;DHT22;8838;50.144;8.176;2022-08-05T13:34:14;23.10;99.90
17442;DHT22;8838;50.144;8.176;2022-08-05T13:36:41;23.00;99.90
17442;DHT22;8838;50.144;8.176;2022-08-05T13:39:09;23.10;99.90
17442;DHT22;8838;50.144;8.176;2022-08-05T13:41:38;23.20;99.90
17442;DHT22;8838;50.144;8.176;2022-08-05T13:44:05;23.20;99.90
17442;DHT22;8838;50.144;8.176;2022-08-05T13:46:32;23.10;99.90
17442;DHT22;8838;50.144;8.176;2022-08-05T13:48:59;22.90;99.90
17442;DHT22;8838;50.144;8.176;2022-08-05T13:51:28;22.80;99.90
17442;DHT22;8838;50.144;8.176;2022-08-05T13:53:56;22.60;99.90
17442;DHT22;8838;50.144;8.176;2022-08-05T13:56:25;22.40;99.90
17442;DHT22;8838;50.144;8.176;2022-08-05T13:58:52;22.40;99.90
17442;DHT22;8838;50.144;8.176;2022-08-05T14:01:19;22.30;99.90
17442;DHT22;8838;50.144;8.176;2022-08-05T14:03:46;22.20;99.90
17442;DHT22;8838;50.144;8.176;2022-08-05T14:06:35;22.20;99.90
17442;DHT22;8838;50.144;8.176;2022-08-05T14:09:02;22.10;99.90
17442;DHT22;8838;50.144;8.176;2022-08-05T14:11:32;22.00;99.90
17442;DHT22;8838;50.144;8.176;2022-08-05T14:13:58;22.00;99.90
17442;DHT22;8838;50.144;8.176;2022-08-05T14:16:25;21.90;99.90
17442;DHT22;8838;50.144;8.176;2022-08-05T14:18:52;22.00;99.90
17442;DHT22;8838;50.144;8.176;2022-08-05T14:21:19;21.90;99.90
17442;DHT22;8838;50.144;8.176;2022-08-05T14:23:46;22.10;99.90
17442;DHT22;8838;50.144;8.176;2022-08-05T14:26:13;21.90;99.90
17442;DHT22;8838;50.144;8.176;2022-08-05T14:28:44;22.00;99.90
17442;DHT22;8838;50.144;8.176;2022-08-05T14:31:11;21.90;99.90
17442;DHT22;8838;50.144;8.176;2022-08-05T14:33:38;21.80;99.90
17442;DHT22;8838;50.144;8.176;2022-08-05T14:36:05;21.60;99.90
17442;DHT22;8838;50.144;8.176;2022-08-05T14:38:32;21.60;99.90
17442;DHT22;8838;50.144;8.176;2022-08-05T14:41:00;21.50;99.90
17442;DHT22;8838;50.144;8.176;2022-08-05T14:43:27;21.50;99.90
17442;DHT22;8838;50.144;8.176;2022-08-05T14:45:55;21.50;99.90
17442;DHT22;8838;50.144;8.176;2022-08-05T14:48:22;21.60;99.90
17442;DHT22;8838;50.144;8.176;2022-08-05T14:50:48;21.60;99.90
17442;DHT22;8838;50.144;8.176;2022-08-05T14:53:15;21.60;99.90
17442;DHT22;8838;50.144;8.176;2022-08-05T14:55:43;21.60;99.90
17442;DHT22;8838;50.144;8.176;2022-08-05T14:58:10;21.50;99.90
17442;DHT22;8838;50.144;8.176;2022-08-05T15:00:37;21.50;99.90
17442;DHT22;8838;50.144;8.176;2022-08-05T15:03:06;21.40;99.90
17442;DHT22;8838;50.144;8.176;2022-08-05T15:05:33;21.30;99.90
17442;DHT22;8838;50.144;8.176;2022-08-05T15:08:00;21.20;99.90
17442;DHT22;8838;50.144;8.176;2022-08-05T15:10:28;21.10;99.90
17442;DHT22;8838;50.144;8.176;2022-08-05T15:12:55;21.20;99.90
17442;DHT22;8838;50.144;8.176;2022-08-05T15:15:24;21.30;99.90
17442;DHT22;8838;50.144;8.176;2022-08-05T15:17:51;21.20;99.90
17442;DHT22;8838;50.144;8.176;2022-08-05T15:20:19;21.10;99.90
17442;DHT22;8838;50.144;8.176;2022-08-05T15:22:47;21.10;99.90
17442;DHT22;8838;50.144;8.176;2022-08-05T15:25:14;21.30;99.90
17442;DHT22;8838;50.144;8.176;2022-08-05T15:27:41;21.30;99.90
17442;DHT22;8838;50.144;8.176;2022-08-05T15:30:09;21.30;99.90
17442;DHT22;8838;50.144;8.176;2022-08-05T15:32:36;21.30;99.90
17442;DHT22;8838;50.144;8.176;2022-08-05T15:35:04;21.30;99.90
17442;DHT22;8838;50.144;8.176;2022-08-05T15:37:32;21.30;99.90
17442;DHT22;8838;50.144;8.176;2022-08-05T15:39:59;21.40;99.90
17442;DHT22;8838;50.144;8.176;2022-08-05T15:42:26;21.40;99.90
17442;DHT22;8838;50.144;8.176;2022-08-05T15:44:53;21.30;99.90
17442;DHT22;8838;50.144;8.176;2022-08-05T15:47:20;21.20;99.90
17442;DHT22;8838;50.144;8.176;2022-08-05T15:49:48;21.20;99.90
17442;DHT22;8838;50.144;8.176;2022-08-05T15:52:15;21.30;99.90
17442;DHT22;8838;50.144;8.176;2022-08-05T15:54:43;21.30;99.90
17442;DHT22;8838;50.144;8.176;2022-08-05T15:57:10;21.20;99.90
17442;DHT22;8838;50.144;8.176;2022-08-05T15:59:38;21.10;99.90
17442;DHT22;8838;50.144;8.176;2022-08-05T16:02:06;21.10;99.90
17442;DHT22;8838;50.144;8.176;2022-08-05T16:04:33;21.00;99.90